createdAt,value
2022-09-14T00:01:24.757Z,95370.16
2022-09-14T00:03:54.190Z,95356.94
2022-09-14T00:06:20.845Z,95360.41
2022-09-14T00:08:51.416Z,95357.16
2022-09-14T00:11:18.939Z,95357.16
2022-09-14T00:13:47.334Z,95355.31
2022-09-14T00:16:21.111Z,95356.94
2022-09-14T00:18:57.196Z,95357.28
2022-09-14T00:21:24.477Z,95354.66
2022-09-14T00:23:51.455Z,95371.16
2022-09-14T00:26:22.366Z,95355.31
2022-09-14T00:28:58.596Z,95358.78
2022-09-14T00:31:26.788Z,95355.91
2022-09-14T00:33:53.931Z,95339.28
2022-09-14T00:36:24.585Z,95335.25
2022-09-14T00:38:52.385Z,95322.13
2022-09-14T00:41:22.019Z,95312.00
2022-09-14T00:43:54.512Z,95298.81
2022-09-14T00:46:21.535Z,95298.69
2022-09-14T00:48:48.673Z,95292.00
2022-09-14T00:51:19.204Z,95296.47
2022-09-14T00:53:46.564Z,95289.13
2022-09-14T00:56:14.560Z,95287.16
2022-09-14T00:58:43.242Z,95280.50
2022-09-14T01:01:10.897Z,95272.59
2022-09-14T01:03:38.034Z,95264.44
2022-09-14T01:06:19.680Z,95261.19
2022-09-14T01:09:20.144Z,95257.63
2022-09-14T01:12:20.600Z,95273.44
2022-09-14T01:15:05.303Z,95281.97
2022-09-14T01:17:41.625Z,95283.56
2022-09-14T01:20:28.029Z,95288.50
2022-09-14T01:23:07.013Z,95286.94
2022-09-14T01:25:56.779Z,95302.19
2022-09-14T01:28:38.065Z,95291.88
2022-09-14T01:31:13.445Z,95286.81
2022-09-14T01:33:49.294Z,95280.16
2022-09-14T01:36:18.124Z,95278.53
2022-09-14T01:38:48.958Z,95272.25
2022-09-14T01:41:17.788Z,95264.16
2022-09-14T01:43:49.852Z,95260.50
2022-09-14T01:46:19.032Z,95260.28
2022-09-14T01:48:58.984Z,95264.75
2022-09-14T01:51:47.697Z,95265.44
2022-09-14T01:54:16.996Z,95271.72
2022-09-14T01:56:52.032Z,95273.19
2022-09-14T01:59:33.214Z,95268.13
2022-09-14T02:02:14.162Z,95273.19
2022-09-14T02:04:46.701Z,95270.09
2022-09-14T02:07:13.578Z,95259.56
2022-09-14T02:09:40.531Z,95256.78
2022-09-14T02:12:07.681Z,95253.31
2022-09-14T02:14:34.582Z,95246.22
2022-09-14T02:17:01.755Z,95247.84
2022-09-14T02:19:33.649Z,95247.63
2022-09-14T02:22:00.415Z,95253.50
2022-09-14T02:24:28.152Z,95252.22
2022-09-14T02:26:56.960Z,95257.94
2022-09-14T02:29:23.682Z,95253.13
2022-09-14T02:32:01.065Z,95258.59
2022-09-14T02:34:55.078Z,95250.69
2022-09-14T02:38:08.340Z,95258.84
2022-09-14T02:40:57.176Z,95262.84
2022-09-14T02:43:29.799Z,95256.31
2022-09-14T02:46:26.700Z,95250.63
2022-09-14T02:49:10.604Z,95245.34
2022-09-14T02:51:49.359Z,95252.81
2022-09-14T02:54:53.028Z,95243.66
2022-09-14T02:57:19.644Z,95238.16
2022-09-14T02:59:46.512Z,95235.50
2022-09-14T03:02:13.222Z,95237.94
2022-09-14T03:04:39.965Z,95239.53
2022-09-14T03:07:06.725Z,95231.41
2022-09-14T03:09:33.477Z,95231.41
2022-09-14T03:12:00.443Z,95232.00
2022-09-14T03:14:27.051Z,95227.88
2022-09-14T03:16:53.641Z,95226.63
2022-09-14T03:19:20.276Z,95212.38
2022-09-14T03:21:46.871Z,95217.66
2022-09-14T03:24:13.504Z,95217.47
2022-09-14T03:26:40.158Z,95213.56
2022-09-14T03:29:07.033Z,95206.69
2022-09-14T03:31:34.586Z,95204.63
2022-09-14T03:34:02.210Z,95209.22
2022-09-14T03:36:30.496Z,95207.63
2022-09-14T03:38:59.643Z,95193.41
2022-09-14T03:41:26.671Z,95193.41
2022-09-14T03:43:53.511Z,95196.59
2022-09-14T03:46:22.884Z,95200.84
2022-09-14T03:48:50.372Z,95192.72
2022-09-14T03:51:17.547Z,95182.84
2022-09-14T03:53:45.334Z,95179.25
2022-09-14T03:56:17.909Z,95173.28
2022-09-14T03:58:45.790Z,95168.00
2022-09-14T04:01:16.071Z,95166.72
2022-09-14T04:03:43.422Z,95156.03
2022-09-14T04:06:10.584Z,95166.47
2022-09-14T04:08:40.649Z,95160.47
2022-09-14T04:11:24.837Z,95156.81
2022-09-14T04:13:52.687Z,95162.66
2022-09-14T04:16:21.139Z,95170.72
2022-09-14T04:18:48.031Z,95168.00
2022-09-14T04:21:20.692Z,95174.41
2022-09-14T04:26:34.576Z,95167.44
2022-09-14T04:29:01.273Z,95173.31
2022-09-14T04:31:28.416Z,95177.41
2022-09-14T04:33:57.164Z,95175.31
2022-09-14T04:36:28.636Z,95178.16
2022-09-14T04:38:57.658Z,95179.34
2022-09-14T04:41:25.510Z,95176.47
2022-09-14T04:43:53.088Z,95187.38
2022-09-14T04:46:22.670Z,95183.50
2022-09-14T04:48:50.755Z,95175.34
2022-09-14T04:51:21.527Z,95185.47
2022-09-14T04:53:50.550Z,95185.00
2022-09-14T04:56:18.674Z,95180.31
2022-09-14T04:58:51.474Z,95175.03
2022-09-14T05:01:23.853Z,95172.41
2022-09-14T05:03:51.511Z,95173.41
2022-09-14T05:06:45.925Z,95171.69
2022-09-14T05:09:18.304Z,95173.16
2022-09-14T05:11:45.998Z,95170.97
2022-09-14T05:14:13.708Z,95179.69
2022-09-14T05:16:43.200Z,95180.50
2022-09-14T05:19:14.008Z,95170.16
2022-09-14T05:21:40.677Z,95179.34
2022-09-14T05:24:12.635Z,95171.31
2022-09-14T05:26:39.345Z,95176.19
2022-09-14T05:29:06.182Z,95171.59
2022-09-14T05:31:33.130Z,95174.69
2022-09-14T05:34:00.163Z,95167.81
2022-09-14T05:36:26.893Z,95173.66
2022-09-14T05:38:53.863Z,95173.88
2022-09-14T05:41:20.563Z,95173.75
2022-09-14T05:43:47.210Z,95171.78
2022-09-14T05:46:15.841Z,95167.16
2022-09-14T05:48:43.174Z,95163.13
2022-09-14T05:51:13.943Z,95156.66
2022-09-14T05:53:40.927Z,95156.06
2022-09-14T05:56:10.996Z,95154.69
2022-09-14T05:58:38.872Z,95154.69
2022-09-14T06:01:20.225Z,95157.78
2022-09-14T06:03:48.026Z,95142.88
2022-09-14T06:06:16.781Z,95146.28
2022-09-14T06:08:44.260Z,95143.56
2022-09-14T06:11:15.259Z,95147.59
2022-09-14T06:13:42.908Z,95142.69
2022-09-14T06:16:15.234Z,95149.34
2022-09-14T06:18:43.820Z,95141.53
2022-09-14T06:21:15.274Z,95136.41
2022-09-14T06:23:42.864Z,95144.91
2022-09-14T06:26:10.027Z,95132.28
2022-09-14T06:28:36.714Z,95129.19
2022-09-14T06:31:05.119Z,95134.81
2022-09-14T06:33:31.959Z,95136.69
2022-09-14T06:36:01.067Z,95137.47
2022-09-14T06:38:29.185Z,95129.78
2022-09-14T06:40:57.926Z,95129.78
2022-09-14T06:43:25.836Z,95133.22
2022-09-14T06:46:04.881Z,95127.94
2022-09-14T06:48:37.857Z,95131.59
2022-09-14T06:51:16.841Z,95134.25
2022-09-14T06:53:45.034Z,95134.59
2022-09-14T06:56:12.472Z,95137.81
2022-09-14T06:58:39.732Z,95137.03
2022-09-14T07:01:09.929Z,95132.53
2022-09-14T07:03:38.417Z,95127.50
2022-09-14T07:06:07.222Z,95137.69
2022-09-14T07:08:34.757Z,95129.78
2022-09-14T07:11:02.176Z,95137.13
2022-09-14T07:13:30.171Z,95125.97
2022-09-14T07:15:56.894Z,95124.72
2022-09-14T07:18:28.353Z,95128.41
2022-09-14T07:20:55.490Z,95128.25
2022-09-14T07:23:22.237Z,95130.31
2022-09-14T07:25:58.908Z,95127.66
2022-09-14T07:28:25.558Z,95129.53
2022-09-14T07:30:55.828Z,95135.72
2022-09-14T07:33:25.037Z,95140.41
2022-09-14T07:35:52.945Z,95141.41
2022-09-14T07:38:35.608Z,95144.28
2022-09-14T07:41:07.296Z,95143.56
2022-09-14T07:43:34.098Z,95155.38
2022-09-14T07:46:07.403Z,95151.53
2022-09-14T07:48:35.705Z,95147.91
2022-09-14T07:51:07.809Z,95154.78
2022-09-14T07:53:39.684Z,95151.34
2022-09-14T07:56:07.638Z,95159.03
2022-09-14T07:58:34.317Z,95152.72
2022-09-14T08:01:03.314Z,95145.63
2022-09-14T08:03:31.609Z,95145.16
2022-09-14T08:06:03.901Z,95148.38
2022-09-14T08:08:36.181Z,95149.56
2022-09-14T08:11:30.080Z,95147.84
2022-09-14T08:13:59.443Z,95145.00
2022-09-14T08:16:29.894Z,95144.53
2022-09-14T08:19:02.359Z,95144.31
2022-09-14T08:21:32.077Z,95136.41
2022-09-14T08:24:01.451Z,95130.91
2022-09-14T08:26:29.126Z,95129.28
2022-09-14T08:28:56.293Z,95128.50
2022-09-14T08:31:25.118Z,95123.56
2022-09-14T08:33:55.089Z,95129.44
2022-09-14T08:36:23.341Z,95126.56
2022-09-14T08:38:50.340Z,95134.38
2022-09-14T08:41:38.144Z,95127.59
2022-09-14T08:44:13.689Z,95127.41
2022-09-14T08:46:48.434Z,95128.78
2022-09-14T08:49:43.013Z,95127.16
2022-09-14T08:52:23.132Z,95126.38
2022-09-14T08:54:53.769Z,95123.94
2022-09-14T08:57:28.994Z,95121.78
2022-09-14T09:00:06.980Z,95113.84
2022-09-14T09:02:51.265Z,95115.34
2022-09-14T09:05:35.919Z,95112.94
2022-09-14T09:08:19.727Z,95117.19
2022-09-14T09:10:47.671Z,95115.50
2022-09-14T09:13:19.156Z,95119.84
2022-09-14T09:15:55.243Z,95106.75
2022-09-14T09:18:44.356Z,95107.47
2022-09-14T09:21:16.630Z,95103.00
2022-09-14T09:23:44.103Z,95115.94
2022-09-14T09:26:24.040Z,95102.31
2022-09-14T09:28:54.543Z,95110.34
2022-09-14T09:31:32.316Z,95109.09
2022-09-14T09:34:27.972Z,95108.28
2022-09-14T09:37:14.906Z,95104.94
2022-09-14T09:39:42.639Z,95093.78
2022-09-14T09:42:22.289Z,95094.97
2022-09-14T09:45:04.376Z,95096.09
2022-09-14T09:47:35.397Z,95105.75
2022-09-14T09:50:05.792Z,95097.94
2022-09-14T09:52:33.241Z,95102.00
2022-09-14T09:55:00.450Z,95106.03
2022-09-14T09:57:33.588Z,95104.75
2022-09-14T10:00:10.206Z,95104.75
2022-09-14T10:02:39.693Z,95097.88
2022-09-14T10:05:34.473Z,95102.91
2022-09-14T10:08:06.929Z,95102.47
2022-09-14T10:10:36.058Z,95106.59
2022-09-14T10:13:05.527Z,95109.72
2022-09-14T10:15:38.872Z,95107.63
2022-09-14T10:18:11.419Z,95103.72
2022-09-14T10:20:58.131Z,95110.16
2022-09-14T10:23:27.954Z,95102.13
2022-09-14T10:26:14.882Z,95091.53
2022-09-14T10:28:49.991Z,95100.16
2022-09-14T10:31:19.658Z,95108.06
2022-09-14T10:33:51.944Z,95100.38
2022-09-14T10:36:24.460Z,95095.22
2022-09-14T10:39:11.489Z,95096.25
2022-09-14T10:42:00.490Z,95079.00
2022-09-14T10:44:58.027Z,95080.25
2022-09-14T10:47:43.132Z,95087.25
2022-09-14T10:50:19.626Z,95080.94
2022-09-14T10:53:04.723Z,95073.00
2022-09-14T10:55:48.850Z,95078.88
2022-09-14T10:58:31.163Z,95087.38
2022-09-14T11:01:17.462Z,95094.72
2022-09-14T11:04:21.643Z,95091.97
2022-09-14T11:06:59.480Z,95086.13
2022-09-14T11:09:35.022Z,95096.13
2022-09-14T11:12:06.823Z,95083.72
2022-09-14T11:14:48.432Z,95087.94
2022-09-14T11:17:38.531Z,95078.97
2022-09-14T11:20:32.077Z,95081.78
2022-09-14T11:23:01.635Z,95077.28
2022-09-14T11:25:40.109Z,95074.97
2022-09-14T11:28:19.784Z,95066.09
2022-09-14T11:31:07.644Z,95067.25
2022-09-14T11:33:41.228Z,95067.84
2022-09-14T11:36:17.416Z,95058.28
2022-09-14T11:38:52.382Z,95053.56
2022-09-14T11:41:45.368Z,95049.41
2022-09-14T11:44:21.494Z,95049.53
2022-09-14T11:47:00.615Z,95050.66
2022-09-14T11:49:46.399Z,95047.31
2022-09-14T11:52:23.269Z,95042.69
2022-09-14T11:54:51.102Z,95040.34
2022-09-14T11:57:44.944Z,95039.91
2022-09-14T12:00:24.150Z,95032.53
2022-09-14T12:03:18.099Z,95038.28
2022-09-14T12:05:46.038Z,95039.91
2022-09-14T12:08:32.946Z,95036.78
2022-09-14T12:11:10.117Z,95038.94
2022-09-14T12:13:37.557Z,95038.47
2022-09-14T12:16:09.656Z,95042.75
2022-09-14T12:18:56.439Z,95047.59
2022-09-14T12:21:26.097Z,95047.00
2022-09-14T12:23:57.982Z,95040.56
2022-09-14T12:26:32.268Z,95042.16
2022-09-14T12:29:05.600Z,95032.06
2022-09-14T12:31:47.844Z,95030.78
2022-09-14T12:34:16.902Z,95027.91
2022-09-14T12:36:43.443Z,95017.88
2022-09-14T12:39:25.909Z,95015.59
2022-09-14T12:41:52.515Z,95021.69
2022-09-14T12:44:40.275Z,95019.16
2022-09-14T12:47:25.168Z,95011.22
2022-09-14T12:50:00.927Z,95019.47
2022-09-14T12:52:52.140Z,95012.31
2022-09-14T12:55:24.877Z,95012.44
2022-09-14T12:58:05.257Z,95014.59
2022-09-14T13:00:47.032Z,95018.38
2022-09-14T13:03:45.763Z,95022.47
2022-09-14T13:06:13.857Z,95016.69
2022-09-14T13:08:45.240Z,95005.06
2022-09-14T13:11:20.101Z,94995.28
2022-09-14T13:13:48.870Z,94982.13
2022-09-14T13:16:24.350Z,94982.28
2022-09-14T13:19:00.230Z,94978.59
2022-09-14T13:21:26.988Z,94979.94
2022-09-14T13:23:53.745Z,94977.41
2022-09-14T13:26:23.572Z,94980.69
2022-09-14T13:28:52.431Z,94970.66
2022-09-14T13:31:27.539Z,94965.41
2022-09-14T13:33:55.573Z,94960.91
2022-09-14T13:36:25.844Z,94967.28
2022-09-14T13:38:53.978Z,94975.44
2022-09-14T13:41:22.967Z,94981.47
2022-09-14T13:43:54.194Z,94992.00
2022-09-14T13:46:23.033Z,94986.53
2022-09-14T13:48:50.493Z,94990.16
2022-09-14T13:51:23.183Z,94986.22
2022-09-14T13:53:52.797Z,94983.38
2022-09-14T13:56:33.896Z,94979.72
2022-09-14T13:59:10.631Z,94983.97
2022-09-14T14:01:44.045Z,94974.41
2022-09-14T14:04:27.664Z,94973.84
2022-09-14T14:07:05.854Z,94975.13
2022-09-14T14:09:59.889Z,94973.84
2022-09-14T14:12:30.689Z,94977.63
2022-09-14T14:15:06.241Z,94976.59
2022-09-14T14:17:37.047Z,94968.09
2022-09-14T14:20:38.219Z,94969.94
2022-09-14T14:23:10.734Z,94969.63
2022-09-14T14:25:45.691Z,94964.47
2022-09-14T14:28:24.449Z,94971.06
2022-09-14T14:30:51.684Z,94966.81
2022-09-14T14:33:19.403Z,94970.69
2022-09-14T14:35:48.672Z,94960.38
2022-09-14T14:38:16.348Z,94961.72
2022-09-14T14:40:45.299Z,94966.47
2022-09-14T14:43:25.274Z,94972.00
2022-09-14T14:45:58.836Z,94958.75
2022-09-14T14:48:26.520Z,94955.66
2022-09-14T14:50:55.782Z,94955.41
2022-09-14T14:53:24.190Z,94950.09
2022-09-14T14:55:51.443Z,94945.78
2022-09-14T14:58:20.383Z,94944.97
2022-09-14T15:00:47.802Z,94948.44
2022-09-14T15:03:15.617Z,94941.19
2022-09-14T15:05:44.044Z,94944.88
2022-09-14T15:08:17.340Z,94938.53
2022-09-14T15:10:44.344Z,94940.75
2022-09-14T15:13:12.358Z,94930.16
2022-09-14T15:15:42.197Z,94937.84
2022-09-14T15:18:09.389Z,94940.25
2022-09-14T15:20:36.164Z,94937.03
2022-09-14T15:23:02.931Z,94926.44
2022-09-14T15:25:29.702Z,94922.22
2022-09-14T15:27:56.548Z,94925.91
2022-09-14T15:30:23.267Z,94921.66
2022-09-14T15:32:49.910Z,94914.72
2022-09-14T15:35:16.805Z,94918.41
2022-09-14T15:37:43.486Z,94925.19
2022-09-14T15:40:10.935Z,94923.84
2022-09-14T15:42:37.722Z,94919.38
2022-09-14T15:45:05.203Z,94922.56
2022-09-14T15:47:36.263Z,94916.94
2022-09-14T15:50:04.258Z,94921.91
2022-09-14T15:52:31.151Z,94917.13
2022-09-14T15:54:57.840Z,94918.16
2022-09-14T15:57:24.491Z,94912.31
2022-09-14T15:59:53.995Z,94908.50
2022-09-14T16:02:20.709Z,94915.66
2022-09-14T16:04:47.451Z,94912.78
2022-09-14T16:07:14.182Z,94914.84
2022-09-14T16:09:41.760Z,94916.94
2022-09-14T16:12:10.196Z,94914.53
2022-09-14T16:14:38.137Z,94912.03
2022-09-14T16:17:05.553Z,94908.00
2022-09-14T16:19:32.255Z,94904.00
2022-09-14T16:21:59.159Z,94901.63
2022-09-14T16:24:26.737Z,94899.69
2022-09-14T16:26:54.126Z,94885.66
2022-09-14T16:29:24.113Z,94888.28
2022-09-14T16:31:52.056Z,94890.06
2022-09-14T16:34:21.872Z,94893.16
2022-09-14T16:36:48.847Z,94894.13
2022-09-14T16:39:19.211Z,94889.56
2022-09-14T16:41:46.079Z,94886.47
2022-09-14T16:44:16.448Z,94894.06
2022-09-14T16:46:43.983Z,94889.25
2022-09-14T16:49:10.708Z,94887.09
2022-09-14T16:51:38.328Z,94887.31
2022-09-14T16:54:05.073Z,94877.22
2022-09-14T16:56:34.188Z,94884.59
2022-09-14T16:59:01.522Z,94878.03
2022-09-14T17:01:31.370Z,94872.59
2022-09-14T17:04:07.234Z,94867.19
2022-09-14T17:06:36.360Z,94860.13
2022-09-14T17:09:09.357Z,94857.59
2022-09-14T17:11:37.951Z,94863.66
2022-09-14T17:14:05.220Z,94856.06
2022-09-14T17:16:32.040Z,94846.06
2022-09-14T17:19:02.600Z,94850.88
2022-09-14T17:21:37.643Z,94845.13
2022-09-14T17:24:05.810Z,94842.81
2022-09-14T17:26:33.229Z,94837.28
2022-09-14T17:29:01.742Z,94836.81
2022-09-14T17:31:32.810Z,94837.59
2022-09-14T17:34:01.645Z,94823.59
2022-09-14T17:36:28.948Z,94823.59
2022-09-14T17:38:58.040Z,94822.00
2022-09-14T17:41:28.148Z,94825.41
2022-09-14T17:43:59.602Z,94824.63
2022-09-14T17:46:27.204Z,94817.97
2022-09-14T17:48:54.475Z,94818.19
2022-09-14T17:51:23.342Z,94818.19
2022-09-14T17:53:53.068Z,94819.03
2022-09-14T17:56:21.854Z,94815.00
2022-09-14T17:58:57.091Z,94816.06
2022-09-14T18:01:23.803Z,94812.59
2022-09-14T18:04:02.320Z,94812.59
2022-09-14T18:06:36.004Z,94809.72
2022-09-14T18:09:07.984Z,94807.56
2022-09-14T18:11:35.304Z,94804.34
2022-09-14T18:14:03.100Z,94810.66
2022-09-14T18:16:29.873Z,94806.66
2022-09-14T18:18:59.555Z,94806.66
2022-09-14T18:21:26.673Z,94799.78
2022-09-14T18:23:54.712Z,94796.34
2022-09-14T18:26:22.847Z,94798.19
2022-09-14T18:28:51.102Z,94795.78
2022-09-14T18:31:19.827Z,94788.56
2022-09-14T18:33:52.279Z,94789.19
2022-09-14T18:36:19.502Z,94787.50
2022-09-14T18:38:46.206Z,94798.53
2022-09-14T18:41:13.343Z,94784.53
2022-09-14T18:43:44.309Z,94788.22
2022-09-14T18:46:12.244Z,94788.66
2022-09-14T18:48:40.636Z,94793.16
2022-09-14T18:51:08.095Z,94797.06
2022-09-14T18:53:34.934Z,94794.41
2022-09-14T18:56:03.991Z,94793.06
2022-09-14T18:58:38.735Z,94802.22
2022-09-14T19:01:05.729Z,94801.13
2022-09-14T19:03:33.081Z,94796.53
2022-09-14T19:06:05.749Z,94795.19
2022-09-14T19:08:32.422Z,94799.66
2022-09-14T19:11:08.219Z,94798.84
2022-09-14T19:13:35.629Z,94805.38
2022-09-14T19:16:07.836Z,94798.53
2022-09-14T19:18:35.501Z,94797.72
2022-09-14T19:21:10.515Z,94803.81
2022-09-14T19:23:38.064Z,94801.19
2022-09-14T19:26:11.185Z,94800.94
2022-09-14T19:28:38.031Z,94789.00
2022-09-14T19:31:10.585Z,94797.97
2022-09-14T19:33:40.011Z,94800.03
2022-09-14T19:36:15.207Z,94788.88
2022-09-14T19:38:42.059Z,94786.81
2022-09-14T19:41:09.593Z,94786.81
2022-09-14T19:43:36.470Z,94783.94
2022-09-14T19:46:08.474Z,94785.78
2022-09-14T19:48:35.594Z,94786.50
2022-09-14T19:51:05.249Z,94769.28
2022-09-14T19:53:34.024Z,94781.69
2022-09-14T19:56:04.581Z,94773.75
2022-09-14T19:58:35.343Z,94780.31
2022-09-14T20:01:02.262Z,94767.56
2022-09-14T20:03:28.890Z,94776.56
2022-09-14T20:06:03.121Z,94784.69
2022-09-14T20:08:31.503Z,94778.63
2022-09-14T20:11:09.605Z,94780.22
2022-09-14T20:13:37.804Z,94789.19
2022-09-14T20:16:32.344Z,94789.19
2022-09-14T20:19:04.603Z,94789.19
2022-09-14T20:21:31.314Z,94792.03
2022-09-14T20:24:17.794Z,94788.94
2022-09-14T20:26:49.849Z,94776.56
2022-09-14T20:29:18.119Z,94788.69
2022-09-14T20:31:45.260Z,94806.97
2022-09-14T20:34:13.153Z,94808.91
2022-09-14T20:36:39.970Z,94814.97
2022-09-14T20:39:06.784Z,94841.41
2022-09-14T20:41:35.412Z,94833.59
2022-09-14T20:44:02.875Z,94835.13
2022-09-14T20:46:35.283Z,94836.59
2022-09-14T20:49:04.427Z,94849.38
2022-09-14T20:51:31.820Z,94846.03
2022-09-14T20:53:58.582Z,94857.06
2022-09-14T20:56:28.264Z,94855.81
2022-09-14T20:59:00.277Z,94853.72
2022-09-14T21:01:30.120Z,94848.69
2022-09-14T21:04:06.682Z,94850.19
2022-09-14T21:06:36.504Z,94847.06
2022-09-14T21:09:04.484Z,94839.25
2022-09-14T21:11:31.473Z,94838.81
2022-09-14T21:13:58.563Z,94834.66
2022-09-14T21:16:30.469Z,94831.59
2022-09-14T21:19:02.439Z,94829.97
2022-09-14T21:21:29.576Z,94823.09
2022-09-14T21:23:57.936Z,94829.16
2022-09-14T21:26:25.656Z,94823.09
2022-09-14T21:28:57.773Z,94812.31
2022-09-14T21:31:26.659Z,94813.81
2022-09-14T21:34:04.635Z,94821.34
2022-09-14T21:36:36.234Z,94821.50
2022-09-14T21:39:08.569Z,94832.72
2022-09-14T21:41:36.232Z,94838.00
2022-09-14T21:44:11.135Z,94844.53
2022-09-14T21:46:51.408Z,94843.50
2022-09-14T21:49:52.592Z,94875.72
2022-09-14T21:52:19.998Z,94890.72
2022-09-14T21:55:16.974Z,94878.69
2022-09-14T21:58:13.059Z,94864.25
2022-09-14T22:01:24.213Z,94883.03
2022-09-14T22:04:16.277Z,94880.94
2022-09-14T22:07:00.300Z,94869.97
2022-09-14T22:09:42.933Z,94869.97
2022-09-14T22:16:06.783Z,94874.06
2022-09-14T22:19:15.648Z,94871.66
2022-09-14T22:21:53.068Z,94880.94
2022-09-14T22:24:54.213Z,94887.38
2022-09-14T22:28:23.589Z,94896.44
2022-09-14T22:30:58.225Z,94904.72
2022-09-14T22:33:26.832Z,94897.38
2022-09-14T22:36:05.841Z,94897.94
2022-09-14T22:38:53.778Z,94898.78
2022-09-14T22:44:39.727Z,94893.34
2022-09-14T22:47:21.872Z,94893.00
2022-09-14T22:49:53.373Z,94896.66
2022-09-14T22:52:23.735Z,94916.50
2022-09-14T22:55:09.260Z,94919.13
2022-09-14T22:57:47.525Z,94913.31
2022-09-14T23:00:30.404Z,94914.78
2022-09-14T23:03:07.606Z,94907.66
2022-09-14T23:05:36.518Z,94909.38
2022-09-14T23:08:06.273Z,94915.69
2022-09-14T23:11:26.780Z,94910.63
2022-09-14T23:14:03.677Z,94917.03
2022-09-14T23:16:40.615Z,94919.31
2022-09-14T23:19:31.187Z,94922.75
2022-09-14T23:22:11.202Z,94916.34
2022-09-14T23:24:50.561Z,94930.53
2022-09-14T23:27:47.887Z,94921.03
2022-09-14T23:30:27.756Z,94926.28
2022-09-14T23:33:10.280Z,94930.75
2022-09-14T23:35:54.309Z,94935.22
2022-09-14T23:38:35.258Z,94949.50
2022-09-14T23:41:16.629Z,94942.28
2022-09-14T23:44:23.526Z,94941.00
2022-09-14T23:47:06.341Z,94929.69
2022-09-14T23:50:03.646Z,94933.69
2022-09-14T23:52:51.744Z,94941.41
2022-09-14T23:55:35.558Z,94942.63
2022-09-14T23:58:15.677Z,94943.41
